createdAt,value
2022-08-16T00:02:21.942Z,58.60
2022-08-16T00:04:51.181Z,58.60
2022-08-16T00:07:17.761Z,58.60
2022-08-16T00:09:44.223Z,58.50
2022-08-16T00:12:10.725Z,58.50
2022-08-16T00:14:37.192Z,58.50
2022-08-16T00:17:16.282Z,58.70
2022-08-16T00:19:45.501Z,58.70
2022-08-16T00:22:13.652Z,58.80
2022-08-16T00:24:41.621Z,59.00
2022-08-16T00:27:11.501Z,58.90
2022-08-16T00:29:38.667Z,58.90
2022-08-16T00:32:06.184Z,59.10
2022-08-16T00:34:43.229Z,59.20
2022-08-16T00:37:20.171Z,59.10
2022-08-16T00:39:47.606Z,59.00
2022-08-16T00:42:14.388Z,59.00
2022-08-16T00:44:56.384Z,59.00
2022-08-16T00:47:22.861Z,59.00
2022-08-16T00:49:56.487Z,59.00
2022-08-16T00:52:30.286Z,58.90
2022-08-16T00:54:57.305Z,58.90
2022-08-16T00:57:23.987Z,58.90
2022-08-16T00:59:54.800Z,58.80
2022-08-16T01:02:31.740Z,58.80
2022-08-16T01:05:10.488Z,58.90
2022-08-16T01:07:50.966Z,58.90
2022-08-16T01:10:19.343Z,58.80
2022-08-16T01:12:45.840Z,58.80
2022-08-16T01:15:12.318Z,58.90
2022-08-16T01:17:38.784Z,59.00
2022-08-16T01:20:24.411Z,59.00
2022-08-16T01:22:55.880Z,59.00
2022-08-16T01:25:23.496Z,59.00
2022-08-16T01:28:00.719Z,59.00
2022-08-16T01:30:27.195Z,58.80
2022-08-16T01:33:02.017Z,58.90
2022-08-16T01:35:40.305Z,58.90
2022-08-16T01:38:08.316Z,58.90
2022-08-16T01:40:45.814Z,58.80
2022-08-16T01:43:12.576Z,58.90
2022-08-16T01:45:40.753Z,59.00
2022-08-16T01:48:19.707Z,59.00
2022-08-16T01:51:08.944Z,59.20
2022-08-16T01:53:33.417Z,59.20
2022-08-16T01:56:00.063Z,59.20
2022-08-16T01:58:26.526Z,59.30
2022-08-16T02:00:54.880Z,59.50
2022-08-16T02:03:24.430Z,59.50
2022-08-16T02:05:53.005Z,59.60
2022-08-16T02:08:33.934Z,59.60
2022-08-16T02:11:00.844Z,59.50
2022-08-16T02:13:27.712Z,59.70
2022-08-16T02:15:59.224Z,59.60
2022-08-16T02:18:25.686Z,59.70
2022-08-16T02:20:53.377Z,59.70
2022-08-16T02:23:20.099Z,59.70
2022-08-16T02:25:50.871Z,59.80
2022-08-16T02:28:19.596Z,60.00
2022-08-16T02:30:50.625Z,60.00
2022-08-16T02:33:18.076Z,60.00
2022-08-16T02:35:54.607Z,60.10
2022-08-16T02:38:24.696Z,60.00
2022-08-16T02:40:51.245Z,59.90
2022-08-16T02:43:17.704Z,60.00
2022-08-16T02:45:44.182Z,60.40
2022-08-16T02:48:30.014Z,60.00
2022-08-16T02:51:06.021Z,59.90
2022-08-16T02:53:33.494Z,60.00
2022-08-16T02:56:00.437Z,60.00
2022-08-16T02:58:27.112Z,60.00
2022-08-16T03:00:56.175Z,60.10
2022-08-16T03:03:23.677Z,60.10
2022-08-16T03:05:52.513Z,60.10
2022-08-16T03:08:51.029Z,60.10
2022-08-16T03:11:06.108Z,60.10
2022-08-16T03:13:43.452Z,60.20
2022-08-16T03:16:32.945Z,60.10
2022-08-16T03:19:00.497Z,60.30
2022-08-16T03:21:28.307Z,60.40
2022-08-16T03:24:04.808Z,60.30
2022-08-16T03:26:31.590Z,60.40
2022-08-16T03:28:58.503Z,60.40
2022-08-16T03:31:25.869Z,60.50
2022-08-16T03:34:01.404Z,60.50
2022-08-16T03:36:30.708Z,60.50
2022-08-16T03:38:57.784Z,60.50
2022-08-16T03:41:29.190Z,60.60
2022-08-16T03:43:56.120Z,60.50
2022-08-16T03:46:48.426Z,60.50
2022-08-16T03:49:09.029Z,60.50
2022-08-16T03:51:36.224Z,60.50
2022-08-16T03:54:02.685Z,61.30
2022-08-16T03:56:38.635Z,60.80
2022-08-16T03:59:23.874Z,60.90
2022-08-16T04:01:53.706Z,60.90
2022-08-16T04:04:32.249Z,60.90
2022-08-16T04:07:00.118Z,60.90
2022-08-16T04:09:26.600Z,61.00
2022-08-16T04:11:53.061Z,61.00
2022-08-16T04:14:33.087Z,61.00
2022-08-16T04:16:59.971Z,61.00
2022-08-16T04:19:31.734Z,61.00
2022-08-16T04:21:58.510Z,61.10
2022-08-16T04:24:28.919Z,61.30
2022-08-16T04:26:55.539Z,61.50
2022-08-16T04:29:24.975Z,61.50
2022-08-16T04:31:56.901Z,61.50
2022-08-16T04:34:24.804Z,61.60
2022-08-16T04:36:51.474Z,61.50
2022-08-16T04:39:20.048Z,61.50
2022-08-16T04:41:50.419Z,61.60
2022-08-16T04:44:52.786Z,61.70
2022-08-16T04:47:21.578Z,61.70
2022-08-16T04:49:52.343Z,61.80
2022-08-16T04:52:34.084Z,61.80
2022-08-16T04:55:03.473Z,61.80
2022-08-16T04:57:30.439Z,61.80
2022-08-16T04:59:57.021Z,61.90
2022-08-16T05:02:41.810Z,61.80
2022-08-16T05:05:09.293Z,61.90
2022-08-16T05:07:58.241Z,61.80
2022-08-16T05:10:26.620Z,61.70
2022-08-16T05:12:53.117Z,61.70
2022-08-16T05:15:19.579Z,61.70
2022-08-16T05:17:46.913Z,61.70
2022-08-16T05:20:38.774Z,61.60
2022-08-16T05:22:59.835Z,61.70
2022-08-16T05:25:40.669Z,61.50
2022-08-16T05:28:07.887Z,61.60
2022-08-16T05:30:38.377Z,61.50
2022-08-16T05:33:04.943Z,61.60
2022-08-16T05:35:31.402Z,61.50
2022-08-16T05:37:59.085Z,61.60
2022-08-16T05:40:25.541Z,61.60
2022-08-16T05:42:53.134Z,61.70
2022-08-16T05:45:23.274Z,61.60
2022-08-16T05:47:59.523Z,61.50
2022-08-16T05:50:28.088Z,61.60
2022-08-16T05:52:54.901Z,61.60
2022-08-16T05:55:21.368Z,61.60
2022-08-16T05:57:52.487Z,61.60
2022-08-16T06:00:22.748Z,61.50
2022-08-16T06:02:50.690Z,61.60
2022-08-16T06:05:17.155Z,61.60
2022-08-16T06:07:43.620Z,61.50
2022-08-16T06:10:10.084Z,61.50
2022-08-16T06:12:36.559Z,61.50
2022-08-16T06:15:04.405Z,61.60
2022-08-16T06:17:41.739Z,61.50
2022-08-16T06:20:10.529Z,61.40
2022-08-16T06:22:39.354Z,61.40
2022-08-16T06:25:06.184Z,61.20
2022-08-16T06:27:39.497Z,61.30
2022-08-16T06:30:07.313Z,61.20
2022-08-16T06:32:37.613Z,61.20
2022-08-16T06:35:09.379Z,61.30
2022-08-16T06:37:37.490Z,61.10
2022-08-16T06:40:04.964Z,61.10
2022-08-16T06:42:47.006Z,61.00
2022-08-16T06:45:13.859Z,61.00
2022-08-16T06:47:53.369Z,61.00
2022-08-16T06:50:22.068Z,60.90
2022-08-16T06:52:58.354Z,60.80
2022-08-16T06:55:29.860Z,60.80
2022-08-16T06:58:01.056Z,60.70
2022-08-16T07:00:27.606Z,60.70
2022-08-16T07:02:54.839Z,60.60
2022-08-16T07:05:27.062Z,60.60
2022-08-16T07:08:07.694Z,60.50
2022-08-16T07:10:37.872Z,60.50
2022-08-16T07:13:14.979Z,60.40
2022-08-16T07:15:54.524Z,60.30
2022-08-16T07:18:21.025Z,60.30
2022-08-16T07:20:48.336Z,60.30
2022-08-16T07:23:15.001Z,60.30
2022-08-16T07:25:41.479Z,60.30
2022-08-16T07:28:11.828Z,60.20
2022-08-16T07:30:46.527Z,60.30
2022-08-16T07:33:15.991Z,60.30
2022-08-16T07:35:44.211Z,60.20
2022-08-16T07:38:12.198Z,60.30
2022-08-16T07:41:01.000Z,60.30
2022-08-16T07:43:25.121Z,60.30
2022-08-16T07:45:55.838Z,60.20
2022-08-16T07:48:22.324Z,60.10
2022-08-16T07:50:55.809Z,60.00
2022-08-16T07:53:25.073Z,60.00
2022-08-16T07:55:55.673Z,59.90
2022-08-16T07:58:33.683Z,59.90
2022-08-16T08:01:01.979Z,59.80
2022-08-16T08:03:36.045Z,59.70
2022-08-16T08:06:05.305Z,59.60
2022-08-16T08:08:51.818Z,59.40
2022-08-16T08:11:18.775Z,59.30
2022-08-16T08:13:45.241Z,59.10
2022-08-16T08:16:18.852Z,58.90
2022-08-16T08:18:49.762Z,58.60
2022-08-16T08:21:16.532Z,58.10
2022-08-16T08:23:45.103Z,57.90
2022-08-16T08:26:17.738Z,57.60
2022-08-16T08:28:44.617Z,57.30
2022-08-16T08:31:11.834Z,56.90
2022-08-16T08:33:47.105Z,56.40
2022-08-16T08:36:22.083Z,56.00
2022-08-16T08:38:48.869Z,55.70
2022-08-16T08:41:18.602Z,55.00
2022-08-16T08:43:46.003Z,54.50
2022-08-16T08:46:18.280Z,54.50
2022-08-16T08:48:59.409Z,54.20
2022-08-16T08:51:27.590Z,53.80
2022-08-16T08:53:58.755Z,53.50
2022-08-16T08:56:25.845Z,53.30
2022-08-16T08:58:53.629Z,52.80
2022-08-16T09:01:31.416Z,51.80
2022-08-16T09:04:02.781Z,51.90
2022-08-16T09:06:31.087Z,51.70
2022-08-16T09:08:57.654Z,51.30
2022-08-16T09:11:38.839Z,51.20
2022-08-16T09:14:07.596Z,51.10
2022-08-16T09:17:02.917Z,50.70
2022-08-16T09:19:20.513Z,50.30
2022-08-16T09:21:59.731Z,49.00
2022-08-16T09:24:47.189Z,48.60
2022-08-16T09:27:12.648Z,48.50
2022-08-16T09:29:44.978Z,48.10
2022-08-16T09:32:12.285Z,47.70
2022-08-16T09:34:38.741Z,47.50
2022-08-16T09:37:17.584Z,47.20
2022-08-16T09:39:50.026Z,47.40
2022-08-16T09:42:16.992Z,47.00
2022-08-16T09:45:11.993Z,46.50
2022-08-16T09:47:57.248Z,45.30
2022-08-16T09:50:22.504Z,44.80
2022-08-16T09:52:49.855Z,44.80
2022-08-16T09:55:16.425Z,44.90
2022-08-16T09:57:43.276Z,45.00
2022-08-16T10:00:44.545Z,44.50
2022-08-16T10:03:06.157Z,44.20
2022-08-16T10:05:35.804Z,43.90
2022-08-16T10:08:25.358Z,43.80
2022-08-16T10:10:48.720Z,43.20
2022-08-16T10:13:16.370Z,42.80
2022-08-16T10:15:43.193Z,42.80
2022-08-16T10:19:02.147Z,42.40
2022-08-16T10:21:06.280Z,42.20
2022-08-16T10:23:35.412Z,41.30
2022-08-16T10:27:19.265Z,40.20
2022-08-16T10:28:50.227Z,40.50
2022-08-16T10:31:44.265Z,39.70
2022-08-16T10:34:03.377Z,39.50
2022-08-16T10:36:38.119Z,38.90
2022-08-16T10:39:08.494Z,38.40
2022-08-16T10:41:35.209Z,37.50
2022-08-16T10:44:02.221Z,38.60
2022-08-16T10:46:39.396Z,38.20
2022-08-16T10:49:08.338Z,38.50
2022-08-16T10:52:01.775Z,38.20
2022-08-16T10:54:29.945Z,38.10
2022-08-16T10:56:57.013Z,37.90
2022-08-16T10:59:32.861Z,37.80
2022-08-16T11:05:08.517Z,35.00
2022-08-16T11:07:43.476Z,35.10
2022-08-16T11:13:21.081Z,35.20
2022-08-16T11:15:51.955Z,35.20
2022-08-16T11:18:48.400Z,35.30
2022-08-16T11:21:08.561Z,34.80
2022-08-16T11:23:35.047Z,34.80
2022-08-16T11:26:16.477Z,35.00
2022-08-16T11:31:34.512Z,34.80
2022-08-16T11:34:01.917Z,34.80
2022-08-16T11:36:29.102Z,34.90
2022-08-16T11:38:57.490Z,35.00
2022-08-16T11:41:24.855Z,34.80
2022-08-16T11:43:52.998Z,34.90
2022-08-16T11:46:43.090Z,34.90
2022-08-16T11:49:09.918Z,34.50
2022-08-16T11:51:39.345Z,34.30
2022-08-16T11:54:05.821Z,34.30
2022-08-16T11:56:56.683Z,34.20
2022-08-16T11:59:24.221Z,34.30
2022-08-16T12:01:58.992Z,34.30
2022-08-16T12:04:26.662Z,34.10
2022-08-16T12:06:53.786Z,33.80
2022-08-16T12:09:21.257Z,33.20
2022-08-16T12:11:52.670Z,33.00
2022-08-16T12:14:19.832Z,32.90
2022-08-16T12:16:55.438Z,33.00
2022-08-16T12:19:22.443Z,32.10
2022-08-16T12:22:00.024Z,32.20
2022-08-16T12:24:26.505Z,32.20
2022-08-16T12:26:52.965Z,32.00
2022-08-16T12:29:20.349Z,32.00
2022-08-16T12:31:56.882Z,31.80
2022-08-16T12:34:29.157Z,31.90
2022-08-16T12:36:55.859Z,32.00
2022-08-16T12:39:22.336Z,31.70
2022-08-16T12:41:48.806Z,30.70
2022-08-16T12:44:19.770Z,30.90
2022-08-16T12:46:46.784Z,31.10
2022-08-16T12:49:14.057Z,31.20
2022-08-16T12:51:59.360Z,31.40
2022-08-16T12:54:26.722Z,31.30
2022-08-16T12:56:53.181Z,31.10
2022-08-16T12:59:22.045Z,31.10
2022-08-16T13:01:50.254Z,30.80
2022-08-16T13:04:20.963Z,30.80
2022-08-16T13:06:52.499Z,31.20
2022-08-16T13:09:19.393Z,31.20
2022-08-16T13:11:48.324Z,31.50
2022-08-16T13:14:31.273Z,31.50
2022-08-16T13:16:59.760Z,31.80
2022-08-16T13:19:39.371Z,32.00
2022-08-16T13:22:19.547Z,31.80
2022-08-16T13:24:46.371Z,31.40
2022-08-16T13:27:13.080Z,31.90
2022-08-16T13:29:44.117Z,32.20
2022-08-16T13:32:10.735Z,32.20
2022-08-16T13:34:57.180Z,32.40
2022-08-16T13:37:23.650Z,32.50
2022-08-16T13:39:52.479Z,32.70
2022-08-16T13:42:19.020Z,32.90
2022-08-16T13:44:48.809Z,32.80
2022-08-16T13:47:24.534Z,32.70
2022-08-16T13:49:56.465Z,32.50
2022-08-16T13:52:22.936Z,32.50
2022-08-16T13:54:51.500Z,32.40
2022-08-16T13:57:17.976Z,32.40
2022-08-16T13:59:45.320Z,32.30
2022-08-16T14:02:11.912Z,32.30
2022-08-16T14:04:38.383Z,32.40
2022-08-16T14:07:06.430Z,32.00
2022-08-16T14:09:32.963Z,32.00
2022-08-16T14:12:00.496Z,32.00
2022-08-16T14:14:29.349Z,32.30
2022-08-16T14:16:56.213Z,32.40
2022-08-16T14:19:22.871Z,32.50
2022-08-16T14:21:56.542Z,32.30
2022-08-16T14:24:30.150Z,31.90
2022-08-16T14:26:57.068Z,31.70
2022-08-16T14:29:23.538Z,32.00
2022-08-16T14:31:54.156Z,32.30
2022-08-16T14:34:20.876Z,32.50
2022-08-16T14:36:47.354Z,32.50
2022-08-16T14:39:18.639Z,32.50
2022-08-16T14:41:45.105Z,32.20
2022-08-16T14:44:11.572Z,32.20
2022-08-16T14:46:38.163Z,32.20
2022-08-16T14:49:05.227Z,31.80
2022-08-16T14:51:35.730Z,31.60
2022-08-16T14:54:02.244Z,31.50
2022-08-16T14:56:38.850Z,31.70
2022-08-16T14:59:13.150Z,31.90
2022-08-16T15:01:57.935Z,32.00
2022-08-16T15:04:32.581Z,32.00
2022-08-16T15:07:06.377Z,32.00
2022-08-16T15:09:44.140Z,32.40
2022-08-16T15:12:26.785Z,32.80
2022-08-16T15:14:57.295Z,33.10
2022-08-16T15:17:25.793Z,33.10
2022-08-16T15:19:53.233Z,33.10
2022-08-16T15:22:19.698Z,33.00
2022-08-16T15:24:46.177Z,33.10
2022-08-16T15:27:12.654Z,33.30
2022-08-16T15:29:40.015Z,33.50
2022-08-16T15:32:08.385Z,33.60
2022-08-16T15:34:35.609Z,33.40
2022-08-16T15:37:02.077Z,33.50
2022-08-16T15:39:37.146Z,33.50
2022-08-16T15:42:06.233Z,33.50
2022-08-16T15:44:50.955Z,33.40
2022-08-16T15:47:19.633Z,33.40
2022-08-16T15:49:46.750Z,33.40
2022-08-16T15:52:20.717Z,33.30
2022-08-16T15:54:55.297Z,33.40
2022-08-16T15:57:21.991Z,33.50
2022-08-16T15:59:52.985Z,33.60
2022-08-16T16:02:29.120Z,33.50
2022-08-16T16:04:57.649Z,33.70
2022-08-16T16:07:27.568Z,33.90
2022-08-16T16:09:58.761Z,34.00
2022-08-16T16:15:11.887Z,34.00
2022-08-16T16:17:38.358Z,34.10
2022-08-16T16:20:04.877Z,34.30
2022-08-16T16:22:31.349Z,34.40
2022-08-16T16:24:57.812Z,34.60
2022-08-16T16:27:24.287Z,34.60
2022-08-16T16:29:58.071Z,34.90
2022-08-16T16:32:33.235Z,35.10
2022-08-16T16:35:01.256Z,35.30
2022-08-16T16:37:27.734Z,35.90
2022-08-16T16:39:54.392Z,36.10
2022-08-16T16:42:29.371Z,36.30
2022-08-16T16:45:00.935Z,36.70
2022-08-16T16:47:28.220Z,36.80
2022-08-16T16:49:55.057Z,36.90
2022-08-16T16:52:43.304Z,37.00
2022-08-16T16:55:07.972Z,37.20
2022-08-16T16:57:35.384Z,37.50
2022-08-16T17:00:04.714Z,37.80
2022-08-16T17:02:53.653Z,38.10
2022-08-16T17:05:20.508Z,38.20
2022-08-16T17:07:47.123Z,38.50
2022-08-16T17:10:13.951Z,38.60
2022-08-16T17:13:00.460Z,38.80
2022-08-16T17:15:36.437Z,38.70
2022-08-16T17:18:36.965Z,38.90
2022-08-16T17:20:49.692Z,39.10
2022-08-16T17:23:16.206Z,39.40
2022-08-16T17:25:46.076Z,39.40
2022-08-16T17:28:58.112Z,39.60
2022-08-16T17:31:05.269Z,39.80
2022-08-16T17:33:36.786Z,40.20
2022-08-16T17:36:03.833Z,40.20
2022-08-16T17:38:39.070Z,40.30
2022-08-16T17:41:12.407Z,40.30
2022-08-16T17:43:43.893Z,40.70
2022-08-16T17:46:51.443Z,40.80
2022-08-16T17:48:57.527Z,41.00
2022-08-16T17:51:24.000Z,41.20
2022-08-16T17:53:50.764Z,41.40
2022-08-16T17:56:17.284Z,41.80
2022-08-16T17:58:43.749Z,42.10
2022-08-16T18:01:10.377Z,42.20
2022-08-16T18:04:06.451Z,42.40
2022-08-16T18:06:23.328Z,42.60
2022-08-16T18:08:51.197Z,42.80
2022-08-16T18:11:25.758Z,42.80
2022-08-16T18:13:52.779Z,42.90
2022-08-16T18:16:19.262Z,43.00
2022-08-16T18:18:45.721Z,43.40
2022-08-16T18:21:12.187Z,43.40
2022-08-16T18:23:38.669Z,43.70
2022-08-16T18:26:05.136Z,43.90
2022-08-16T18:28:31.635Z,44.00
2022-08-16T18:31:01.159Z,44.80
2022-08-16T18:33:31.706Z,44.60
2022-08-16T18:35:58.308Z,45.10
2022-08-16T18:38:24.805Z,45.30
2022-08-16T18:40:51.269Z,45.80
2022-08-16T18:43:17.752Z,46.30
2022-08-16T18:45:44.213Z,46.60
2022-08-16T18:48:10.689Z,46.80
2022-08-16T18:50:59.693Z,46.90
2022-08-16T18:53:23.597Z,47.20
2022-08-16T18:55:50.060Z,47.40
2022-08-16T18:58:16.533Z,47.50
2022-08-16T19:00:50.541Z,47.60
2022-08-16T19:03:23.335Z,47.80
2022-08-16T19:05:49.810Z,47.80
2022-08-16T19:08:16.291Z,47.90
2022-08-16T19:10:42.774Z,48.10
2022-08-16T19:13:09.250Z,48.20
2022-08-16T19:15:35.712Z,48.40
2022-08-16T19:18:02.197Z,48.60
2022-08-16T19:20:28.660Z,48.80
2022-08-16T19:23:05.611Z,49.00
2022-08-16T19:25:48.247Z,49.30
2022-08-16T19:28:49.792Z,49.60
2022-08-16T19:31:02.714Z,49.90
2022-08-16T19:33:29.181Z,50.20
2022-08-16T19:35:55.649Z,50.40
2022-08-16T19:38:22.132Z,50.60
2022-08-16T19:40:48.651Z,50.70
2022-08-16T19:43:15.193Z,51.50
2022-08-16T19:45:45.950Z,50.90
2022-08-16T19:48:12.849Z,50.80
2022-08-16T19:50:39.306Z,50.70
2022-08-16T19:53:13.158Z,50.40
2022-08-16T19:55:45.187Z,50.70
2022-08-16T19:58:13.786Z,50.90
2022-08-16T20:00:40.275Z,51.00
2022-08-16T20:03:09.244Z,51.20
2022-08-16T20:05:35.721Z,51.30
2022-08-16T20:08:04.456Z,51.30
2022-08-16T20:10:31.246Z,51.40
2022-08-16T20:13:01.930Z,51.30
2022-08-16T20:15:29.089Z,51.20
2022-08-16T20:17:55.565Z,51.10
2022-08-16T20:20:22.036Z,51.00
2022-08-16T20:22:54.258Z,51.00
2022-08-16T20:25:21.163Z,51.40
2022-08-16T20:27:54.986Z,51.90
2022-08-16T20:30:21.465Z,52.20
2022-08-16T20:32:48.069Z,52.30
2022-08-16T20:35:14.734Z,52.50
2022-08-16T20:37:41.194Z,52.50
2022-08-16T20:40:34.438Z,52.50
2022-08-16T20:42:57.592Z,52.70
2022-08-16T20:45:24.565Z,52.60
2022-08-16T20:47:54.129Z,52.80
2022-08-16T20:50:20.714Z,53.00
2022-08-16T20:52:47.179Z,52.90
2022-08-16T20:55:13.649Z,53.00
2022-08-16T20:57:40.112Z,53.30
2022-08-16T21:00:06.581Z,53.40
2022-08-16T21:02:33.055Z,53.50
2022-08-16T21:05:04.489Z,53.30
2022-08-16T21:07:30.954Z,53.20
2022-08-16T21:09:57.433Z,53.20
2022-08-16T21:12:23.897Z,53.30
2022-08-16T21:14:53.538Z,53.60
2022-08-16T21:17:20.008Z,54.10
2022-08-16T21:19:46.493Z,54.20
2022-08-16T21:22:12.963Z,54.20
2022-08-16T21:24:39.425Z,54.20
2022-08-16T21:27:05.888Z,54.30
2022-08-16T21:29:39.628Z,54.40
2022-08-16T21:32:09.652Z,54.70
2022-08-16T21:34:36.121Z,54.80
2022-08-16T21:37:02.595Z,54.80
2022-08-16T21:39:29.070Z,54.90
2022-08-16T21:41:55.576Z,54.80
2022-08-16T21:44:22.032Z,54.50
2022-08-16T21:46:58.821Z,54.50
2022-08-16T21:49:25.292Z,54.50
2022-08-16T21:51:51.770Z,54.40
2022-08-16T21:54:18.233Z,54.50
2022-08-16T21:56:44.713Z,54.30
2022-08-16T21:59:11.185Z,54.30
2022-08-16T22:01:37.722Z,54.50
2022-08-16T22:04:37.757Z,54.60
2022-08-16T22:06:50.657Z,54.60
2022-08-16T22:09:17.118Z,54.70
2022-08-16T22:11:43.588Z,54.90
2022-08-16T22:14:10.056Z,55.00
2022-08-16T22:16:36.539Z,55.30
2022-08-16T22:19:03.001Z,55.30
2022-08-16T22:21:29.478Z,55.20
2022-08-16T22:23:57.639Z,55.00
2022-08-16T22:26:29.727Z,55.10
2022-08-16T22:28:57.602Z,55.10
2022-08-16T22:31:24.085Z,55.00
2022-08-16T22:33:50.598Z,54.90
2022-08-16T22:36:17.085Z,55.60
2022-08-16T22:38:54.957Z,55.00
2022-08-16T22:41:23.325Z,55.00
2022-08-16T22:43:49.795Z,55.00
2022-08-16T22:46:16.281Z,54.80
2022-08-16T22:48:42.895Z,54.80
2022-08-16T22:51:09.382Z,54.70
2022-08-16T22:53:37.498Z,54.60
2022-08-16T22:56:04.069Z,54.70
2022-08-16T22:58:36.736Z,54.60
2022-08-16T23:01:03.725Z,54.80
2022-08-16T23:03:30.495Z,54.70
2022-08-16T23:05:56.953Z,55.50
2022-08-16T23:08:38.752Z,54.90
2022-08-16T23:11:06.681Z,54.90
2022-08-16T23:13:33.155Z,54.90
2022-08-16T23:15:59.619Z,54.80
2022-08-16T23:18:27.835Z,54.90
2022-08-16T23:20:54.289Z,54.70
2022-08-16T23:23:21.970Z,54.70
2022-08-16T23:25:48.707Z,54.80
2022-08-16T23:28:15.215Z,54.80
2022-08-16T23:30:41.676Z,54.80
2022-08-16T23:33:08.134Z,54.80
2022-08-16T23:35:45.244Z,54.80
2022-08-16T23:38:38.833Z,54.90
2022-08-16T23:40:58.800Z,54.90
2022-08-16T23:43:25.258Z,55.00
2022-08-16T23:45:51.738Z,55.10
2022-08-16T23:48:18.194Z,55.20
2022-08-16T23:50:44.664Z,55.30
2022-08-16T23:53:11.123Z,55.40
2022-08-16T23:55:37.599Z,55.40
2022-08-16T23:58:04.060Z,55.50
